createdAt,value
2023-02-28T00:01:37.138Z,2.88
2023-02-28T00:04:04.332Z,2.67
2023-02-28T00:06:32.068Z,2.92
2023-02-28T00:09:01.465Z,2.88
2023-02-28T00:11:30.628Z,3.47
2023-02-28T00:13:59.152Z,3.20
2023-02-28T00:16:27.051Z,4.25
2023-02-28T00:18:54.900Z,4.30
2023-02-28T00:21:23.395Z,3.97
2023-02-28T00:23:51.130Z,4.07
2023-02-28T00:26:21.597Z,3.78
2023-02-28T00:28:53.972Z,3.55
2023-02-28T00:31:21.464Z,3.05
2023-02-28T00:33:49.265Z,3.50
2023-02-28T00:36:16.764Z,3.17
2023-02-28T00:38:44.441Z,3.47
2023-02-28T00:41:17.958Z,3.10
2023-02-28T00:43:48.431Z,3.63
2023-02-28T00:46:15.872Z,3.25
2023-02-28T00:48:43.160Z,3.63
2023-02-28T00:51:10.615Z,3.28
2023-02-28T00:53:38.483Z,3.35
2023-02-28T00:56:05.789Z,3.10
2023-02-28T00:58:33.335Z,3.33
2023-02-28T01:01:04.420Z,3.55
2023-02-28T01:03:34.020Z,3.35
2023-02-28T01:06:01.526Z,3.28
2023-02-28T01:08:30.910Z,2.83
2023-02-28T01:10:59.067Z,2.28
2023-02-28T01:13:26.622Z,2.80
2023-02-28T01:15:54.994Z,2.50
2023-02-28T01:18:23.090Z,3.00
2023-02-28T01:20:50.883Z,2.75
2023-02-28T01:23:20.918Z,2.67
2023-02-28T01:25:50.820Z,2.47
2023-02-28T01:28:19.718Z,2.80
2023-02-28T01:30:49.818Z,2.80
2023-02-28T01:33:19.336Z,2.92
2023-02-28T01:35:49.105Z,2.95
2023-02-28T01:38:22.502Z,2.80
2023-02-28T01:40:51.035Z,2.78
2023-02-28T01:43:29.390Z,2.83
2023-02-28T01:45:57.801Z,2.80
2023-02-28T01:48:28.425Z,2.78
2023-02-28T01:50:58.334Z,2.70
2023-02-28T01:53:34.253Z,2.58
2023-02-28T01:56:05.661Z,2.78
2023-02-28T02:01:00.747Z,2.42
2023-02-28T02:03:28.461Z,2.63
2023-02-28T02:05:56.821Z,2.63
2023-02-28T02:08:30.754Z,2.60
2023-02-28T02:11:01.718Z,2.50
2023-02-28T02:13:31.104Z,2.47
2023-02-28T02:16:10.838Z,2.47
2023-02-28T02:18:43.411Z,3.00
2023-02-28T02:21:30.445Z,2.80
2023-02-28T02:24:11.982Z,3.08
2023-02-28T02:26:50.092Z,2.42
2023-02-28T02:29:32.062Z,2.45
2023-02-28T02:32:18.306Z,2.75
2023-02-28T02:34:49.859Z,2.80
2023-02-28T02:40:02.264Z,2.50
2023-02-28T02:42:31.224Z,2.75
2023-02-28T02:45:03.711Z,2.50
2023-02-28T02:47:32.918Z,2.67
2023-02-28T02:50:03.490Z,2.78
2023-02-28T02:52:34.682Z,2.50
2023-02-28T02:55:04.421Z,2.53
2023-02-28T02:57:39.294Z,2.40
2023-02-28T03:00:11.670Z,2.47
2023-02-28T03:02:51.518Z,2.63
2023-02-28T03:05:28.219Z,2.65
2023-02-28T03:07:56.949Z,2.78
2023-02-28T03:10:30.080Z,2.88
2023-02-28T03:13:17.585Z,2.80
2023-02-28T03:15:50.376Z,2.80
2023-02-28T03:18:31.375Z,2.80
2023-02-28T03:21:05.185Z,3.13
2023-02-28T03:24:05.874Z,3.13
2023-02-28T03:26:34.741Z,3.00
2023-02-28T03:29:14.200Z,2.72
2023-02-28T03:31:54.056Z,2.97
2023-02-28T03:34:25.768Z,2.70
2023-02-28T03:36:55.513Z,3.17
2023-02-28T03:39:36.246Z,3.20
2023-02-28T03:42:09.407Z,3.10
2023-02-28T03:44:51.271Z,2.90
2023-02-28T03:47:24.142Z,2.88
2023-02-28T03:49:59.813Z,3.33
2023-02-28T03:52:31.020Z,2.90
2023-02-28T03:55:01.847Z,3.80
2023-02-28T03:57:29.467Z,3.25
2023-02-28T04:00:07.205Z,2.88
2023-02-28T04:02:35.639Z,2.90
2023-02-28T04:05:03.210Z,3.35
2023-02-28T04:07:36.849Z,4.00
2023-02-28T04:10:05.227Z,3.40
2023-02-28T04:12:33.571Z,3.00
2023-02-28T04:15:01.854Z,3.33
2023-02-28T04:17:31.457Z,3.20
2023-02-28T04:19:58.765Z,3.20
2023-02-28T04:22:29.555Z,3.58
2023-02-28T04:24:56.872Z,3.90
2023-02-28T04:27:24.102Z,3.88
2023-02-28T04:29:51.860Z,3.75
2023-02-28T04:32:19.219Z,3.80
2023-02-28T04:34:47.757Z,4.20
2023-02-28T04:37:15.094Z,3.95
2023-02-28T04:39:43.135Z,4.03
2023-02-28T04:42:10.748Z,3.92
2023-02-28T04:44:38.411Z,3.97
2023-02-28T04:47:05.702Z,3.90
2023-02-28T04:49:32.921Z,4.60
2023-02-28T04:52:01.275Z,4.38
2023-02-28T04:54:29.429Z,3.80
2023-02-28T04:56:56.721Z,3.88
2023-02-28T04:59:23.995Z,3.78
2023-02-28T05:01:53.633Z,3.28
2023-02-28T05:04:23.544Z,3.42
2023-02-28T05:06:50.740Z,3.88
2023-02-28T05:09:20.069Z,3.88
2023-02-28T05:11:47.385Z,3.30
2023-02-28T05:14:16.906Z,3.05
2023-02-28T05:16:44.425Z,3.17
2023-02-28T05:19:11.747Z,3.35
2023-02-28T05:21:52.985Z,3.05
2023-02-28T05:24:23.958Z,3.78
2023-02-28T05:26:53.194Z,3.10
2023-02-28T05:29:20.831Z,3.60
2023-02-28T05:31:48.841Z,3.30
2023-02-28T05:34:22.257Z,3.30
2023-02-28T05:36:49.789Z,2.70
2023-02-28T05:39:17.084Z,3.20
2023-02-28T05:41:45.664Z,3.33
2023-02-28T05:44:13.987Z,3.20
2023-02-28T05:46:43.207Z,2.88
2023-02-28T05:49:11.484Z,3.38
2023-02-28T05:51:40.818Z,2.72
2023-02-28T05:54:09.016Z,3.00
2023-02-28T05:56:37.137Z,2.75
2023-02-28T05:59:04.804Z,3.15
2023-02-28T06:01:36.680Z,2.92
2023-02-28T06:04:05.160Z,2.78
2023-02-28T06:06:38.850Z,2.42
2023-02-28T06:09:12.474Z,2.35
2023-02-28T06:11:41.348Z,2.60
2023-02-28T06:14:19.592Z,2.80
2023-02-28T06:16:47.085Z,2.30
2023-02-28T06:19:15.094Z,2.30
2023-02-28T06:21:43.533Z,2.70
2023-02-28T06:24:13.173Z,2.83
2023-02-28T06:26:41.677Z,2.53
2023-02-28T06:29:10.115Z,2.58
2023-02-28T06:31:37.461Z,2.55
2023-02-28T06:34:04.901Z,2.15
2023-02-28T06:36:33.375Z,2.88
2023-02-28T06:39:02.026Z,2.67
2023-02-28T06:41:30.494Z,2.60
2023-02-28T06:44:03.489Z,2.80
2023-02-28T06:46:33.699Z,1.88
2023-02-28T06:49:01.279Z,2.30
2023-02-28T06:51:30.271Z,2.55
2023-02-28T06:53:58.657Z,2.47
2023-02-28T06:56:26.073Z,2.45
2023-02-28T06:58:56.352Z,2.55
2023-02-28T07:01:26.914Z,2.20
2023-02-28T07:03:55.933Z,2.53
2023-02-28T07:06:24.447Z,2.63
2023-02-28T07:08:53.282Z,2.40
2023-02-28T07:11:23.791Z,2.42
2023-02-28T07:13:56.455Z,2.40
2023-02-28T07:16:42.502Z,2.45
2023-02-28T07:19:09.767Z,2.83
2023-02-28T07:21:37.512Z,2.75
2023-02-28T07:24:06.280Z,2.30
2023-02-28T07:26:35.285Z,2.47
2023-02-28T07:29:03.919Z,2.25
2023-02-28T07:31:31.880Z,2.47
2023-02-28T07:34:00.314Z,2.30
2023-02-28T07:36:29.667Z,2.70
2023-02-28T07:38:59.919Z,2.85
2023-02-28T07:41:35.769Z,2.85
2023-02-28T07:44:10.156Z,2.58
2023-02-28T07:46:39.814Z,2.83
2023-02-28T07:49:11.401Z,3.05
2023-02-28T07:51:39.193Z,3.13
2023-02-28T07:54:08.904Z,2.85
2023-02-28T07:56:37.291Z,3.60
2023-02-28T07:59:04.742Z,2.75
2023-02-28T08:01:35.230Z,3.13
2023-02-28T08:04:02.920Z,3.67
2023-02-28T08:06:31.464Z,2.63
2023-02-28T08:08:58.975Z,3.03
2023-02-28T08:11:28.781Z,2.90
2023-02-28T08:13:57.302Z,2.80
2023-02-28T08:16:25.970Z,3.28
2023-02-28T08:18:54.531Z,2.15
2023-02-28T08:21:23.746Z,2.38
2023-02-28T08:23:53.493Z,2.33
2023-02-28T08:26:23.754Z,2.78
2023-02-28T08:28:51.310Z,2.47
2023-02-28T08:31:20.208Z,2.20
2023-02-28T08:33:54.433Z,2.25
2023-02-28T08:36:23.809Z,2.40
2023-02-28T08:38:51.600Z,2.30
2023-02-28T08:41:21.122Z,2.00
2023-02-28T08:43:52.521Z,2.17
2023-02-28T08:46:19.841Z,2.47
2023-02-28T08:48:47.177Z,2.50
2023-02-28T08:51:17.497Z,2.60
2023-02-28T08:53:45.050Z,2.40
2023-02-28T08:56:14.584Z,2.17
2023-02-28T08:58:45.729Z,2.28
2023-02-28T09:01:23.660Z,2.45
2023-02-28T09:03:51.748Z,2.35
2023-02-28T09:06:29.722Z,2.35
2023-02-28T09:09:00.573Z,2.55
2023-02-28T09:11:29.527Z,2.30
2023-02-28T09:14:04.845Z,2.65
2023-02-28T09:16:33.903Z,2.10
2023-02-28T09:19:12.386Z,2.20
2023-02-28T09:21:41.207Z,2.30
2023-02-28T09:24:10.017Z,2.83
2023-02-28T09:26:43.172Z,2.53
2023-02-28T09:31:48.445Z,2.42
2023-02-28T09:34:16.992Z,2.05
2023-02-28T09:36:47.035Z,2.45
2023-02-28T09:39:16.622Z,2.20
2023-02-28T09:41:51.771Z,1.80
2023-02-28T09:44:38.196Z,1.85
2023-02-28T09:47:13.487Z,1.70
2023-02-28T09:49:44.917Z,1.73
2023-02-28T09:54:46.686Z,1.85
2023-02-28T09:57:34.473Z,2.30
2023-02-28T10:00:11.836Z,2.05
2023-02-28T10:03:02.410Z,2.20
2023-02-28T10:05:49.185Z,2.00
2023-02-28T10:08:17.665Z,1.83
2023-02-28T10:10:54.514Z,1.98
2023-02-28T10:13:39.572Z,1.88
2023-02-28T10:16:10.733Z,1.83
2023-02-28T10:18:59.154Z,1.90
2023-02-28T10:21:29.491Z,1.65
2023-02-28T10:24:15.317Z,2.05
2023-02-28T10:26:46.881Z,1.90
2023-02-28T10:29:14.491Z,1.98
2023-02-28T10:31:42.426Z,1.50
2023-02-28T10:34:13.569Z,1.23
2023-02-28T10:36:41.735Z,1.67
2023-02-28T10:39:27.694Z,1.30
2023-02-28T10:41:56.404Z,1.30
2023-02-28T10:44:24.659Z,1.48
2023-02-28T10:46:53.404Z,1.40
2023-02-28T10:49:41.478Z,1.45
2023-02-28T10:52:11.981Z,1.50
2023-02-28T10:54:39.219Z,1.40
2023-02-28T10:57:10.226Z,1.67
2023-02-28T10:59:37.755Z,1.20
2023-02-28T11:02:26.302Z,1.42
2023-02-28T11:04:54.195Z,1.40
2023-02-28T11:07:27.675Z,1.60
2023-02-28T11:09:57.559Z,1.30
2023-02-28T11:12:47.020Z,1.65
2023-02-28T11:15:19.407Z,1.65
2023-02-28T11:17:59.476Z,1.48
2023-02-28T11:20:30.183Z,1.40
2023-02-28T11:23:01.925Z,1.20
2023-02-28T11:25:34.539Z,1.50
2023-02-28T11:28:03.387Z,1.55
2023-02-28T11:30:36.258Z,1.48
2023-02-28T11:33:23.630Z,1.40
2023-02-28T11:35:51.553Z,1.70
2023-02-28T11:38:19.054Z,1.65
2023-02-28T11:41:02.468Z,1.60
2023-02-28T11:43:40.393Z,1.30
2023-02-28T11:46:13.701Z,1.50
2023-02-28T11:48:59.405Z,1.60
2023-02-28T11:51:34.464Z,1.50
2023-02-28T11:54:22.602Z,1.75
2023-02-28T11:56:52.410Z,1.42
2023-02-28T11:59:41.502Z,1.50
2023-02-28T12:02:25.754Z,1.50
2023-02-28T12:04:56.980Z,1.50
2023-02-28T12:07:30.140Z,1.65
2023-02-28T12:10:25.250Z,1.83
2023-02-28T12:13:11.757Z,1.70
2023-02-28T12:16:00.426Z,1.70
2023-02-28T12:18:47.540Z,1.48
2023-02-28T12:21:27.546Z,1.50
2023-02-28T12:23:59.014Z,1.60
2023-02-28T12:26:29.792Z,1.48
2023-02-28T12:29:03.927Z,1.25
2023-02-28T12:31:40.589Z,1.50
2023-02-28T12:34:26.632Z,1.60
2023-02-28T12:36:55.665Z,1.27
2023-02-28T12:39:27.212Z,1.45
2023-02-28T12:42:08.891Z,1.50
2023-02-28T12:44:40.103Z,1.42
2023-02-28T12:47:13.954Z,1.50
2023-02-28T12:50:02.729Z,1.70
2023-02-28T12:52:43.620Z,1.40
2023-02-28T12:55:30.850Z,1.60
2023-02-28T12:58:02.460Z,1.65
2023-02-28T13:00:40.579Z,1.50
2023-02-28T13:03:26.030Z,1.52
2023-02-28T13:06:12.500Z,4.38
2023-02-28T13:09:02.130Z,1.70
2023-02-28T13:11:48.878Z,1.90
2023-02-28T13:14:25.047Z,1.67
2023-02-28T13:17:02.061Z,1.55
2023-02-28T13:19:31.549Z,1.95
2023-02-28T13:22:01.622Z,1.52
2023-02-28T13:24:35.302Z,1.52
2023-02-28T13:27:09.482Z,1.73
2023-02-28T13:29:50.569Z,1.42
2023-02-28T13:32:37.856Z,1.70
2023-02-28T13:35:05.470Z,2.10
2023-02-28T13:37:35.135Z,1.65
2023-02-28T13:40:08.133Z,1.38
2023-02-28T13:42:39.817Z,1.88
2023-02-28T13:45:07.577Z,2.17
2023-02-28T13:47:48.862Z,1.67
2023-02-28T13:50:30.323Z,1.60
2023-02-28T13:52:57.677Z,1.50
2023-02-28T13:55:51.489Z,2.17
2023-02-28T13:58:32.012Z,1.70
2023-02-28T14:01:07.525Z,1.80
2023-02-28T14:03:53.503Z,1.58
2023-02-28T14:06:39.546Z,1.75
2023-02-28T14:09:25.713Z,1.67
2023-02-28T14:11:55.390Z,1.90
2023-02-28T14:14:38.654Z,1.70
2023-02-28T14:17:11.017Z,1.60
2023-02-28T14:19:51.156Z,1.92
2023-02-28T14:22:41.802Z,1.70
2023-02-28T14:25:34.419Z,1.70
2023-02-28T14:28:22.915Z,1.90
2023-02-28T14:31:06.684Z,1.65
2023-02-28T14:33:47.617Z,1.70
2023-02-28T14:36:27.065Z,1.70
2023-02-28T14:38:59.997Z,1.92
2023-02-28T14:41:39.920Z,2.00
2023-02-28T14:44:21.598Z,1.77
2023-02-28T14:46:55.475Z,1.75
2023-02-28T14:49:29.231Z,1.70
2023-02-28T14:52:10.860Z,1.80
2023-02-28T14:54:41.736Z,1.70
2023-02-28T14:57:22.156Z,1.70
2023-02-28T14:59:59.955Z,2.00
2023-02-28T15:02:32.968Z,2.00
2023-02-28T15:05:01.948Z,1.55
2023-02-28T15:07:29.867Z,1.60
2023-02-28T15:10:10.436Z,2.67
2023-02-28T15:12:38.235Z,1.85
2023-02-28T15:15:28.232Z,1.80
2023-02-28T15:18:07.391Z,1.95
2023-02-28T15:20:35.411Z,1.80
2023-02-28T15:23:04.891Z,1.98
2023-02-28T15:25:32.610Z,1.85
2023-02-28T15:27:59.984Z,1.80
2023-02-28T15:30:31.433Z,1.70
2023-02-28T15:33:18.996Z,2.10
2023-02-28T15:35:46.741Z,2.15
2023-02-28T15:38:23.148Z,1.67
2023-02-28T15:41:00.880Z,1.80
2023-02-28T15:43:33.498Z,1.80
2023-02-28T15:46:02.119Z,2.08
2023-02-28T15:48:46.450Z,2.78
2023-02-28T15:51:13.935Z,2.08
2023-02-28T15:53:48.886Z,1.98
2023-02-28T15:56:24.116Z,1.73
2023-02-28T15:58:51.583Z,1.90
2023-02-28T16:01:26.708Z,1.80
2023-02-28T16:03:59.248Z,1.77
2023-02-28T16:06:40.268Z,1.80
2023-02-28T16:09:10.110Z,2.15
2023-02-28T16:11:40.151Z,2.00
2023-02-28T16:14:07.868Z,2.03
2023-02-28T16:16:35.316Z,2.08
2023-02-28T16:19:03.990Z,2.10
2023-02-28T16:21:32.000Z,2.05
2023-02-28T16:24:00.739Z,2.10
2023-02-28T16:26:31.498Z,2.00
2023-02-28T16:29:03.393Z,2.00
2023-02-28T16:31:31.484Z,2.33
2023-02-28T16:33:59.293Z,2.35
2023-02-28T16:36:26.805Z,2.08
2023-02-28T16:38:56.489Z,2.30
2023-02-28T16:41:26.410Z,2.28
2023-02-28T16:43:59.627Z,2.15
2023-02-28T16:46:35.952Z,2.40
2023-02-28T16:49:05.434Z,2.40
2023-02-28T16:51:35.636Z,2.20
2023-02-28T16:54:12.237Z,2.50
2023-02-28T16:56:41.736Z,2.08
2023-02-28T16:59:12.181Z,2.30
2023-02-28T17:01:39.907Z,2.70
2023-02-28T17:04:08.343Z,2.50
2023-02-28T17:06:35.645Z,2.53
2023-02-28T17:09:03.164Z,2.88
2023-02-28T17:11:32.106Z,2.83
2023-02-28T17:13:59.922Z,2.58
2023-02-28T17:16:29.962Z,2.38
2023-02-28T17:19:06.287Z,2.55
2023-02-28T17:21:35.816Z,7.10
2023-02-28T17:24:03.306Z,2.70
2023-02-28T17:26:31.003Z,4.78
2023-02-28T17:28:59.159Z,4.28
2023-02-28T17:31:27.470Z,4.55
2023-02-28T17:33:58.297Z,12.35
2023-02-28T17:36:28.831Z,9.65
2023-02-28T17:39:00.094Z,8.35
2023-02-28T17:41:31.618Z,4.97
2023-02-28T17:46:34.832Z,6.40
2023-02-28T17:49:02.637Z,2.97
2023-02-28T17:51:29.831Z,2.80
2023-02-28T17:53:57.497Z,3.20
2023-02-28T17:56:25.570Z,2.78
2023-02-28T17:58:56.794Z,2.80
2023-02-28T18:01:27.211Z,2.97
2023-02-28T18:04:04.439Z,2.83
2023-02-28T18:06:47.670Z,2.70
2023-02-28T18:09:19.166Z,2.83
2023-02-28T18:14:18.431Z,3.33
2023-02-28T18:16:48.752Z,3.30
2023-02-28T18:19:17.735Z,3.00
2023-02-28T18:21:45.986Z,3.88
2023-02-28T18:24:15.940Z,5.22
2023-02-28T18:26:44.258Z,4.32
2023-02-28T18:29:25.252Z,5.40
2023-02-28T18:31:53.544Z,4.93
2023-02-28T18:34:23.246Z,4.65
2023-02-28T18:36:52.962Z,4.80
2023-02-28T18:39:20.450Z,4.88
2023-02-28T18:41:47.898Z,5.10
2023-02-28T18:44:20.966Z,4.55
2023-02-28T18:46:50.397Z,4.82
2023-02-28T18:49:18.976Z,5.22
2023-02-28T18:51:46.879Z,5.13
2023-02-28T18:54:17.592Z,4.50
2023-02-28T18:56:45.093Z,4.88
2023-02-28T18:59:12.513Z,4.70
2023-02-28T19:01:41.262Z,4.53
2023-02-28T19:04:13.276Z,4.95
2023-02-28T19:06:42.137Z,4.88
2023-02-28T19:09:14.619Z,4.85
2023-02-28T19:11:42.895Z,5.22
2023-02-28T19:14:12.037Z,5.25
2023-02-28T19:16:39.715Z,5.53
2023-02-28T19:19:07.050Z,5.22
2023-02-28T19:21:36.967Z,5.28
2023-02-28T19:24:05.243Z,4.88
2023-02-28T19:26:33.892Z,4.72
2023-02-28T19:29:03.403Z,4.75
2023-02-28T19:31:31.312Z,5.63
2023-02-28T19:34:00.102Z,5.38
2023-02-28T19:36:29.610Z,5.05
2023-02-28T19:38:58.258Z,5.13
2023-02-28T19:41:32.355Z,5.53
2023-02-28T19:43:59.486Z,6.03
2023-02-28T19:46:32.577Z,5.60
2023-02-28T19:49:00.011Z,4.85
2023-02-28T19:51:28.811Z,5.38
2023-02-28T19:53:57.485Z,6.05
2023-02-28T19:56:25.897Z,5.53
2023-02-28T19:58:53.285Z,5.80
2023-02-28T20:01:20.878Z,5.65
2023-02-28T20:03:50.165Z,5.13
2023-02-28T20:06:17.926Z,6.05
2023-02-28T20:08:46.080Z,5.75
2023-02-28T20:11:16.824Z,5.57
2023-02-28T20:13:44.902Z,6.00
2023-02-28T20:16:14.708Z,6.28
2023-02-28T20:18:44.716Z,5.70
2023-02-28T20:21:14.229Z,6.70
2023-02-28T20:23:41.973Z,6.40
2023-02-28T20:26:10.094Z,5.78
2023-02-28T20:28:41.512Z,6.30
2023-02-28T20:31:18.581Z,6.30
2023-02-28T20:33:51.435Z,6.80
2023-02-28T20:36:25.840Z,6.93
2023-02-28T20:38:54.021Z,7.20
2023-02-28T20:41:24.299Z,6.10
2023-02-28T20:43:55.659Z,6.53
2023-02-28T20:46:22.919Z,6.82
2023-02-28T20:48:52.653Z,6.20
2023-02-28T20:51:22.316Z,6.15
2023-02-28T20:53:53.359Z,6.22
2023-02-28T20:56:23.841Z,6.43
2023-02-28T20:58:58.886Z,6.70
2023-02-28T21:01:27.047Z,6.22
2023-02-28T21:03:56.202Z,6.97
2023-02-28T21:06:26.099Z,6.20
2023-02-28T21:08:56.988Z,6.63
2023-02-28T21:11:32.582Z,7.28
2023-02-28T21:14:03.126Z,6.53
2023-02-28T21:16:32.317Z,6.72
2023-02-28T21:19:04.284Z,6.50
2023-02-28T21:21:38.537Z,6.95
2023-02-28T21:24:07.996Z,6.68
2023-02-28T21:26:36.226Z,7.30
2023-02-28T21:29:04.942Z,6.70
2023-02-28T21:31:38.325Z,7.03
2023-02-28T21:34:07.308Z,6.97
2023-02-28T21:36:45.622Z,6.63
2023-02-28T21:39:16.794Z,6.55
2023-02-28T21:41:44.031Z,6.82
2023-02-28T21:44:19.030Z,6.68
2023-02-28T21:46:52.523Z,7.20
2023-02-28T21:49:22.208Z,6.90
2023-02-28T21:51:51.311Z,7.68
2023-02-28T21:54:19.646Z,8.15
2023-02-28T21:56:51.067Z,8.02
2023-02-28T22:01:46.645Z,7.15
2023-02-28T22:04:22.117Z,8.40
2023-02-28T22:06:51.131Z,7.85
2023-02-28T22:09:18.838Z,7.82
2023-02-28T22:11:46.347Z,8.27
2023-02-28T22:14:16.066Z,8.77
2023-02-28T22:16:52.037Z,8.48
2023-02-28T22:19:29.531Z,9.02
2023-02-28T22:21:57.024Z,9.27
2023-02-28T22:24:26.231Z,9.90
2023-02-28T22:26:57.166Z,9.07
2023-02-28T22:29:32.414Z,9.27
2023-02-28T22:32:01.968Z,8.30
2023-02-28T22:34:29.202Z,9.38
2023-02-28T22:36:58.064Z,8.25
2023-02-28T22:39:27.373Z,9.23
2023-02-28T22:41:58.637Z,9.43
2023-02-28T22:44:25.919Z,9.38
2023-02-28T22:46:56.406Z,9.75
2023-02-28T22:49:25.856Z,8.98
2023-02-28T22:51:55.053Z,11.48
2023-02-28T22:54:23.627Z,10.07
2023-02-28T22:56:54.284Z,10.10
2023-02-28T22:59:22.334Z,10.07
2023-02-28T23:01:49.470Z,10.30
2023-02-28T23:04:17.893Z,10.27
2023-02-28T23:06:47.339Z,9.75
2023-02-28T23:09:18.162Z,9.60
2023-02-28T23:11:47.475Z,9.93
2023-02-28T23:14:17.589Z,10.27
2023-02-28T23:16:49.217Z,9.32
2023-02-28T23:19:18.045Z,11.02
2023-02-28T23:21:45.985Z,11.00
2023-02-28T23:24:14.481Z,9.63
2023-02-28T23:26:44.687Z,10.05
2023-02-28T23:29:15.310Z,10.48
2023-02-28T23:31:44.242Z,12.80
2023-02-28T23:34:11.868Z,11.40
2023-02-28T23:36:39.722Z,11.07
2023-02-28T23:39:07.515Z,10.35
2023-02-28T23:41:37.090Z,10.85
2023-02-28T23:44:05.328Z,10.40
2023-02-28T23:46:33.452Z,10.77
2023-02-28T23:49:00.779Z,10.15
2023-02-28T23:51:28.025Z,10.07
2023-02-28T23:53:57.153Z,10.82
2023-02-28T23:56:26.045Z,10.65
2023-02-28T23:58:56.040Z,10.85
